sensor_id;sensor_type;location;lat;lon;timestamp;P1;durP1;ratioP1;P2;durP2;ratioP2
12681;SDS011;6405;59.208;18.216;2023-09-12T00:01:29;25.90;;;16.80;;
12681;SDS011;6405;59.208;18.216;2023-09-12T00:03:57;24.37;;;17.33;;
12681;SDS011;6405;59.208;18.216;2023-09-12T00:06:24;29.37;;;17.07;;
12681;SDS011;6405;59.208;18.216;2023-09-12T00:08:51;27.93;;;17.67;;
12681;SDS011;6405;59.208;18.216;2023-09-12T00:11:17;31.20;;;17.47;;
12681;SDS011;6405;59.208;18.216;2023-09-12T00:13:44;39.43;;;16.27;;
12681;SDS011;6405;59.208;18.216;2023-09-12T00:16:09;22.77;;;15.57;;
12681;SDS011;6405;59.208;18.216;2023-09-12T00:18:36;27.00;;;15.40;;
12681;SDS011;6405;59.208;18.216;2023-09-12T00:21:02;27.27;;;15.03;;
12681;SDS011;6405;59.208;18.216;2023-09-12T00:23:28;21.17;;;15.07;;
12681;SDS011;6405;59.208;18.216;2023-09-12T00:25:54;19.10;;;14.37;;
12681;SDS011;6405;59.208;18.216;2023-09-12T00:28:20;19.03;;;14.63;;
12681;SDS011;6405;59.208;18.216;2023-09-12T00:30:46;28.87;;;15.33;;
12681;SDS011;6405;59.208;18.216;2023-09-12T00:33:11;22.57;;;14.97;;
12681;SDS011;6405;59.208;18.216;2023-09-12T00:35:37;31.13;;;14.93;;
12681;SDS011;6405;59.208;18.216;2023-09-12T00:38:03;42.90;;;15.27;;
12681;SDS011;6405;59.208;18.216;2023-09-12T00:40:29;29.57;;;14.27;;
12681;SDS011;6405;59.208;18.216;2023-09-12T00:42:55;21.67;;;14.17;;
12681;SDS011;6405;59.208;18.216;2023-09-12T00:45:20;20.70;;;14.57;;
12681;SDS011;6405;59.208;18.216;2023-09-12T00:47:46;25.03;;;15.40;;
12681;SDS011;6405;59.208;18.216;2023-09-12T00:50:13;26.40;;;14.73;;
12681;SDS011;6405;59.208;18.216;2023-09-12T00:52:39;29.50;;;14.43;;
12681;SDS011;6405;59.208;18.216;2023-09-12T00:55:07;41.13;;;15.07;;
12681;SDS011;6405;59.208;18.216;2023-09-12T00:57:33;45.97;;;14.93;;
12681;SDS011;6405;59.208;18.216;2023-09-12T01:00:01;23.73;;;14.17;;
12681;SDS011;6405;59.208;18.216;2023-09-12T01:02:37;15.90;;;12.60;;
12681;SDS011;6405;59.208;18.216;2023-09-12T01:05:11;24.53;;;14.60;;
12681;SDS011;6405;59.208;18.216;2023-09-12T01:07:39;34.13;;;15.13;;
12681;SDS011;6405;59.208;18.216;2023-09-12T01:10:05;29.60;;;14.57;;
12681;SDS011;6405;59.208;18.216;2023-09-12T01:12:31;22.23;;;15.23;;
12681;SDS011;6405;59.208;18.216;2023-09-12T01:14:57;35.87;;;15.27;;
12681;SDS011;6405;59.208;18.216;2023-09-12T01:17:23;36.10;;;15.13;;
12681;SDS011;6405;59.208;18.216;2023-09-12T01:19:50;28.10;;;15.03;;
12681;SDS011;6405;59.208;18.216;2023-09-12T01:27:41;18.87;;;14.17;;
12681;SDS011;6405;59.208;18.216;2023-09-12T01:30:08;49.30;;;14.43;;
12681;SDS011;6405;59.208;18.216;2023-09-12T01:32:35;34.13;;;14.13;;
12681;SDS011;6405;59.208;18.216;2023-09-12T01:35:02;34.77;;;14.83;;
12681;SDS011;6405;59.208;18.216;2023-09-12T01:37:32;31.27;;;14.20;;
12681;SDS011;6405;59.208;18.216;2023-09-12T01:39:57;21.63;;;13.37;;
12681;SDS011;6405;59.208;18.216;2023-09-12T01:42:23;27.33;;;14.13;;
12681;SDS011;6405;59.208;18.216;2023-09-12T01:44:55;40.77;;;13.70;;
12681;SDS011;6405;59.208;18.216;2023-09-12T01:47:23;27.63;;;13.23;;
12681;SDS011;6405;59.208;18.216;2023-09-12T01:49:52;29.23;;;14.77;;
12681;SDS011;6405;59.208;18.216;2023-09-12T01:52:20;22.90;;;12.90;;
12681;SDS011;6405;59.208;18.216;2023-09-12T01:54:46;32.47;;;14.37;;
12681;SDS011;6405;59.208;18.216;2023-09-12T01:57:14;35.07;;;14.30;;
12681;SDS011;6405;59.208;18.216;2023-09-12T01:59:40;37.93;;;12.63;;
12681;SDS011;6405;59.208;18.216;2023-09-12T02:02:07;22.87;;;13.90;;
12681;SDS011;6405;59.208;18.216;2023-09-12T02:04:32;38.87;;;14.63;;
12681;SDS011;6405;59.208;18.216;2023-09-12T02:06:58;19.77;;;13.90;;
12681;SDS011;6405;59.208;18.216;2023-09-12T02:09:24;22.50;;;14.07;;
12681;SDS011;6405;59.208;18.216;2023-09-12T02:11:50;23.40;;;13.83;;
12681;SDS011;6405;59.208;18.216;2023-09-12T02:14:16;30.73;;;13.93;;
12681;SDS011;6405;59.208;18.216;2023-09-12T02:16:45;48.50;;;15.47;;
12681;SDS011;6405;59.208;18.216;2023-09-12T02:19:10;26.20;;;14.57;;
12681;SDS011;6405;59.208;18.216;2023-09-12T02:21:36;32.77;;;13.53;;
12681;SDS011;6405;59.208;18.216;2023-09-12T02:24:02;27.47;;;13.37;;
12681;SDS011;6405;59.208;18.216;2023-09-12T02:26:28;26.63;;;14.13;;
12681;SDS011;6405;59.208;18.216;2023-09-12T02:28:53;21.10;;;12.00;;
12681;SDS011;6405;59.208;18.216;2023-09-12T02:31:19;35.33;;;13.53;;
12681;SDS011;6405;59.208;18.216;2023-09-12T02:33:45;22.37;;;14.43;;
12681;SDS011;6405;59.208;18.216;2023-09-12T02:36:10;20.00;;;12.60;;
12681;SDS011;6405;59.208;18.216;2023-09-12T02:38:36;22.13;;;13.53;;
12681;SDS011;6405;59.208;18.216;2023-09-12T02:41:02;17.50;;;13.17;;
12681;SDS011;6405;59.208;18.216;2023-09-12T02:43:30;23.20;;;14.17;;
12681;SDS011;6405;59.208;18.216;2023-09-12T02:45:57;23.87;;;12.80;;
12681;SDS011;6405;59.208;18.216;2023-09-12T02:48:23;22.13;;;12.73;;
12681;SDS011;6405;59.208;18.216;2023-09-12T02:50:48;24.27;;;12.83;;
12681;SDS011;6405;59.208;18.216;2023-09-12T02:53:14;22.27;;;12.73;;
12681;SDS011;6405;59.208;18.216;2023-09-12T02:55:40;17.30;;;10.90;;
12681;SDS011;6405;59.208;18.216;2023-09-12T02:58:06;22.33;;;12.27;;
12681;SDS011;6405;59.208;18.216;2023-09-12T03:00:32;21.60;;;11.33;;
12681;SDS011;6405;59.208;18.216;2023-09-12T03:03:15;25.50;;;12.57;;
12681;SDS011;6405;59.208;18.216;2023-09-12T03:05:42;18.83;;;11.80;;
12681;SDS011;6405;59.208;18.216;2023-09-12T03:08:08;18.47;;;11.30;;
12681;SDS011;6405;59.208;18.216;2023-09-12T03:10:33;12.17;;;10.90;;
12681;SDS011;6405;59.208;18.216;2023-09-12T03:12:59;29.43;;;12.93;;
12681;SDS011;6405;59.208;18.216;2023-09-12T03:15:25;18.37;;;12.17;;
12681;SDS011;6405;59.208;18.216;2023-09-12T03:17:50;23.97;;;12.50;;
12681;SDS011;6405;59.208;18.216;2023-09-12T03:20:16;16.17;;;11.33;;
12681;SDS011;6405;59.208;18.216;2023-09-12T03:22:42;37.03;;;12.00;;
12681;SDS011;6405;59.208;18.216;2023-09-12T03:25:07;16.83;;;11.03;;
12681;SDS011;6405;59.208;18.216;2023-09-12T03:27:33;31.10;;;11.20;;
12681;SDS011;6405;59.208;18.216;2023-09-12T03:29:59;50.17;;;12.17;;
12681;SDS011;6405;59.208;18.216;2023-09-12T03:32:25;38.33;;;11.60;;
12681;SDS011;6405;59.208;18.216;2023-09-12T03:34:50;20.83;;;11.17;;
12681;SDS011;6405;59.208;18.216;2023-09-12T03:37:16;16.00;;;9.67;;
12681;SDS011;6405;59.208;18.216;2023-09-12T03:39:42;19.77;;;9.90;;
12681;SDS011;6405;59.208;18.216;2023-09-12T03:42:08;22.97;;;10.97;;
12681;SDS011;6405;59.208;18.216;2023-09-12T03:44:33;21.97;;;12.17;;
12681;SDS011;6405;59.208;18.216;2023-09-12T03:46:59;20.63;;;11.13;;
12681;SDS011;6405;59.208;18.216;2023-09-12T03:49:25;28.40;;;9.93;;
12681;SDS011;6405;59.208;18.216;2023-09-12T03:51:50;20.57;;;10.13;;
12681;SDS011;6405;59.208;18.216;2023-09-12T03:54:16;22.63;;;10.50;;
12681;SDS011;6405;59.208;18.216;2023-09-12T03:56:42;17.67;;;9.57;;
12681;SDS011;6405;59.208;18.216;2023-09-12T03:59:07;14.80;;;10.57;;
12681;SDS011;6405;59.208;18.216;2023-09-12T04:01:33;27.10;;;9.70;;
12681;SDS011;6405;59.208;18.216;2023-09-12T04:03:59;22.10;;;9.00;;
12681;SDS011;6405;59.208;18.216;2023-09-12T04:06:25;27.40;;;10.10;;
12681;SDS011;6405;59.208;18.216;2023-09-12T04:08:51;28.03;;;9.60;;
12681;SDS011;6405;59.208;18.216;2023-09-12T04:11:16;40.33;;;10.53;;
12681;SDS011;6405;59.208;18.216;2023-09-12T04:13:42;21.73;;;10.20;;
12681;SDS011;6405;59.208;18.216;2023-09-12T04:16:08;31.43;;;10.17;;
12681;SDS011;6405;59.208;18.216;2023-09-12T04:18:34;35.80;;;10.83;;
12681;SDS011;6405;59.208;18.216;2023-09-12T04:21:00;19.40;;;9.97;;
12681;SDS011;6405;59.208;18.216;2023-09-12T04:23:26;29.37;;;11.40;;
12681;SDS011;6405;59.208;18.216;2023-09-12T04:25:51;24.63;;;11.07;;
12681;SDS011;6405;59.208;18.216;2023-09-12T04:28:17;22.87;;;9.63;;
12681;SDS011;6405;59.208;18.216;2023-09-12T04:30:43;19.93;;;9.40;;
12681;SDS011;6405;59.208;18.216;2023-09-12T04:33:08;17.87;;;10.00;;
12681;SDS011;6405;59.208;18.216;2023-09-12T04:35:34;44.47;;;11.20;;
12681;SDS011;6405;59.208;18.216;2023-09-12T04:38:00;34.63;;;10.67;;
12681;SDS011;6405;59.208;18.216;2023-09-12T04:40:26;19.47;;;8.70;;
12681;SDS011;6405;59.208;18.216;2023-09-12T04:42:52;25.10;;;8.80;;
12681;SDS011;6405;59.208;18.216;2023-09-12T04:45:18;38.87;;;10.30;;
12681;SDS011;6405;59.208;18.216;2023-09-12T04:47:44;71.97;;;11.37;;
12681;SDS011;6405;59.208;18.216;2023-09-12T04:50:10;83.03;;;11.77;;
12681;SDS011;6405;59.208;18.216;2023-09-12T04:52:37;18.97;;;9.53;;
12681;SDS011;6405;59.208;18.216;2023-09-12T04:55:03;37.47;;;9.40;;
12681;SDS011;6405;59.208;18.216;2023-09-12T04:57:29;45.63;;;11.70;;
12681;SDS011;6405;59.208;18.216;2023-09-12T04:59:56;40.33;;;12.17;;
12681;SDS011;6405;59.208;18.216;2023-09-12T05:02:23;63.30;;;12.30;;
12681;SDS011;6405;59.208;18.216;2023-09-12T05:04:50;40.93;;;11.33;;
12681;SDS011;6405;59.208;18.216;2023-09-12T05:07:16;31.57;;;11.10;;
12681;SDS011;6405;59.208;18.216;2023-09-12T05:09:41;55.37;;;12.93;;
12681;SDS011;6405;59.208;18.216;2023-09-12T05:12:07;24.73;;;11.70;;
12681;SDS011;6405;59.208;18.216;2023-09-12T05:14:33;29.00;;;11.10;;
12681;SDS011;6405;59.208;18.216;2023-09-12T05:16:59;66.57;;;13.70;;
12681;SDS011;6405;59.208;18.216;2023-09-12T05:19:26;36.77;;;12.10;;
12681;SDS011;6405;59.208;18.216;2023-09-12T05:21:52;39.83;;;12.30;;
12681;SDS011;6405;59.208;18.216;2023-09-12T05:24:18;20.13;;;10.80;;
12681;SDS011;6405;59.208;18.216;2023-09-12T05:26:44;24.73;;;11.07;;
12681;SDS011;6405;59.208;18.216;2023-09-12T05:29:09;20.63;;;11.23;;
12681;SDS011;6405;59.208;18.216;2023-09-12T05:31:35;18.63;;;10.77;;
12681;SDS011;6405;59.208;18.216;2023-09-12T05:34:01;30.00;;;11.40;;
12681;SDS011;6405;59.208;18.216;2023-09-12T05:36:27;26.87;;;10.83;;
12681;SDS011;6405;59.208;18.216;2023-09-12T05:38:53;25.17;;;9.90;;
12681;SDS011;6405;59.208;18.216;2023-09-12T05:41:18;14.27;;;9.83;;
12681;SDS011;6405;59.208;18.216;2023-09-12T05:43:44;29.50;;;9.57;;
12681;SDS011;6405;59.208;18.216;2023-09-12T05:46:10;11.93;;;8.27;;
12681;SDS011;6405;59.208;18.216;2023-09-12T05:48:35;15.37;;;9.37;;
12681;SDS011;6405;59.208;18.216;2023-09-12T05:51:01;9.20;;;8.40;;
12681;SDS011;6405;59.208;18.216;2023-09-12T05:53:27;11.37;;;8.83;;
12681;SDS011;6405;59.208;18.216;2023-09-12T05:55:53;25.13;;;9.67;;
12681;SDS011;6405;59.208;18.216;2023-09-12T05:58:18;15.57;;;8.90;;
12681;SDS011;6405;59.208;18.216;2023-09-12T06:00:44;9.23;;;8.40;;
12681;SDS011;6405;59.208;18.216;2023-09-12T06:03:13;25.57;;;8.60;;
12681;SDS011;6405;59.208;18.216;2023-09-12T06:05:40;17.67;;;8.83;;
12681;SDS011;6405;59.208;18.216;2023-09-12T06:08:06;8.87;;;8.07;;
12681;SDS011;6405;59.208;18.216;2023-09-12T06:10:31;9.53;;;8.60;;
12681;SDS011;6405;59.208;18.216;2023-09-12T06:12:58;11.33;;;8.83;;
12681;SDS011;6405;59.208;18.216;2023-09-12T06:15:24;11.37;;;8.70;;
12681;SDS011;6405;59.208;18.216;2023-09-12T06:17:50;9.23;;;8.33;;
12681;SDS011;6405;59.208;18.216;2023-09-12T06:20:16;17.07;;;9.00;;
12681;SDS011;6405;59.208;18.216;2023-09-12T06:22:41;12.53;;;8.23;;
12681;SDS011;6405;59.208;18.216;2023-09-12T06:25:08;32.53;;;9.30;;
12681;SDS011;6405;59.208;18.216;2023-09-12T06:27:34;22.67;;;9.63;;
12681;SDS011;6405;59.208;18.216;2023-09-12T06:30:00;18.77;;;9.53;;
12681;SDS011;6405;59.208;18.216;2023-09-12T06:32:26;15.17;;;9.63;;
12681;SDS011;6405;59.208;18.216;2023-09-12T06:34:51;11.77;;;9.70;;
12681;SDS011;6405;59.208;18.216;2023-09-12T06:37:18;19.60;;;9.47;;
12681;SDS011;6405;59.208;18.216;2023-09-12T06:39:43;11.97;;;8.70;;
12681;SDS011;6405;59.208;18.216;2023-09-12T06:42:09;9.57;;;8.67;;
12681;SDS011;6405;59.208;18.216;2023-09-12T06:44:35;9.77;;;8.97;;
12681;SDS011;6405;59.208;18.216;2023-09-12T06:47:01;9.20;;;8.40;;
12681;SDS011;6405;59.208;18.216;2023-09-12T06:49:28;10.07;;;9.17;;
12681;SDS011;6405;59.208;18.216;2023-09-12T06:51:57;10.13;;;9.03;;
12681;SDS011;6405;59.208;18.216;2023-09-12T06:54:22;9.40;;;8.57;;
12681;SDS011;6405;59.208;18.216;2023-09-12T06:56:48;11.80;;;8.60;;
12681;SDS011;6405;59.208;18.216;2023-09-12T06:59:14;9.50;;;8.60;;
12681;SDS011;6405;59.208;18.216;2023-09-12T07:01:39;9.30;;;8.50;;
12681;SDS011;6405;59.208;18.216;2023-09-12T07:04:05;11.17;;;9.37;;
12681;SDS011;6405;59.208;18.216;2023-09-12T07:06:31;9.47;;;8.47;;
12681;SDS011;6405;59.208;18.216;2023-09-12T07:08:57;9.60;;;8.53;;
12681;SDS011;6405;59.208;18.216;2023-09-12T07:11:23;11.03;;;8.57;;
12681;SDS011;6405;59.208;18.216;2023-09-12T07:13:49;9.83;;;8.93;;
12681;SDS011;6405;59.208;18.216;2023-09-12T07:16:14;9.20;;;8.40;;
12681;SDS011;6405;59.208;18.216;2023-09-12T07:18:40;8.93;;;8.23;;
12681;SDS011;6405;59.208;18.216;2023-09-12T07:21:06;8.83;;;8.03;;
12681;SDS011;6405;59.208;18.216;2023-09-12T07:23:32;9.50;;;8.53;;
12681;SDS011;6405;59.208;18.216;2023-09-12T07:25:58;9.30;;;8.50;;
12681;SDS011;6405;59.208;18.216;2023-09-12T07:28:24;11.13;;;8.43;;
12681;SDS011;6405;59.208;18.216;2023-09-12T07:30:50;9.57;;;8.57;;
12681;SDS011;6405;59.208;18.216;2023-09-12T07:33:16;9.27;;;8.37;;
12681;SDS011;6405;59.208;18.216;2023-09-12T07:35:42;8.60;;;7.80;;
12681;SDS011;6405;59.208;18.216;2023-09-12T07:38:08;9.43;;;8.63;;
12681;SDS011;6405;59.208;18.216;2023-09-12T07:40:33;9.93;;;8.93;;
12681;SDS011;6405;59.208;18.216;2023-09-12T07:42:59;9.80;;;8.73;;
12681;SDS011;6405;59.208;18.216;2023-09-12T07:45:25;10.97;;;9.83;;
12681;SDS011;6405;59.208;18.216;2023-09-12T07:47:51;10.57;;;9.23;;
12681;SDS011;6405;59.208;18.216;2023-09-12T07:50:16;9.57;;;8.50;;
12681;SDS011;6405;59.208;18.216;2023-09-12T07:52:42;9.57;;;8.57;;
12681;SDS011;6405;59.208;18.216;2023-09-12T07:55:08;9.73;;;8.80;;
12681;SDS011;6405;59.208;18.216;2023-09-12T07:57:34;10.23;;;9.23;;
12681;SDS011;6405;59.208;18.216;2023-09-12T08:00:01;11.63;;;9.20;;
12681;SDS011;6405;59.208;18.216;2023-09-12T08:02:35;10.80;;;9.73;;
12681;SDS011;6405;59.208;18.216;2023-09-12T08:05:00;9.40;;;8.60;;
12681;SDS011;6405;59.208;18.216;2023-09-12T08:07:26;10.97;;;9.60;;
12681;SDS011;6405;59.208;18.216;2023-09-12T08:09:53;10.80;;;9.77;;
12681;SDS011;6405;59.208;18.216;2023-09-12T08:12:20;11.73;;;10.67;;
12681;SDS011;6405;59.208;18.216;2023-09-12T08:14:47;11.67;;;10.47;;
12681;SDS011;6405;59.208;18.216;2023-09-12T08:17:13;12.87;;;11.57;;
12681;SDS011;6405;59.208;18.216;2023-09-12T08:19:39;13.27;;;11.07;;
12681;SDS011;6405;59.208;18.216;2023-09-12T08:22:06;12.13;;;10.90;;
12681;SDS011;6405;59.208;18.216;2023-09-12T08:24:32;13.33;;;11.90;;
12681;SDS011;6405;59.208;18.216;2023-09-12T08:26:59;18.07;;;12.30;;
12681;SDS011;6405;59.208;18.216;2023-09-12T08:29:25;13.33;;;11.90;;
12681;SDS011;6405;59.208;18.216;2023-09-12T08:31:50;14.10;;;12.70;;
12681;SDS011;6405;59.208;18.216;2023-09-12T08:34:18;20.27;;;13.57;;
12681;SDS011;6405;59.208;18.216;2023-09-12T08:36:45;19.30;;;15.43;;
12681;SDS011;6405;59.208;18.216;2023-09-12T08:39:12;17.50;;;14.90;;
12681;SDS011;6405;59.208;18.216;2023-09-12T08:41:42;18.23;;;14.43;;
12681;SDS011;6405;59.208;18.216;2023-09-12T08:44:11;20.83;;;16.27;;
12681;SDS011;6405;59.208;18.216;2023-09-12T08:46:39;18.90;;;16.20;;
12681;SDS011;6405;59.208;18.216;2023-09-12T08:49:09;20.63;;;17.53;;
12681;SDS011;6405;59.208;18.216;2023-09-12T08:51:38;24.70;;;19.23;;
12681;SDS011;6405;59.208;18.216;2023-09-12T08:56:46;23.67;;;19.00;;
12681;SDS011;6405;59.208;18.216;2023-09-12T08:59:12;24.33;;;19.77;;
12681;SDS011;6405;59.208;18.216;2023-09-12T09:01:38;23.20;;;19.37;;
12681;SDS011;6405;59.208;18.216;2023-09-12T09:04:05;24.67;;;20.00;;
12681;SDS011;6405;59.208;18.216;2023-09-12T09:06:31;27.37;;;22.50;;
12681;SDS011;6405;59.208;18.216;2023-09-12T09:09:02;29.83;;;22.30;;
12681;SDS011;6405;59.208;18.216;2023-09-12T09:11:30;28.50;;;22.87;;
12681;SDS011;6405;59.208;18.216;2023-09-12T09:13:56;29.27;;;23.57;;
12681;SDS011;6405;59.208;18.216;2023-09-12T09:16:21;27.90;;;22.73;;
12681;SDS011;6405;59.208;18.216;2023-09-12T09:21:23;31.07;;;23.57;;
12681;SDS011;6405;59.208;18.216;2023-09-12T09:23:54;30.90;;;23.73;;
12681;SDS011;6405;59.208;18.216;2023-09-12T09:26:20;31.40;;;25.13;;
12681;SDS011;6405;59.208;18.216;2023-09-12T09:29:01;33.60;;;24.80;;
12681;SDS011;6405;59.208;18.216;2023-09-12T09:31:28;32.27;;;24.30;;
12681;SDS011;6405;59.208;18.216;2023-09-12T09:33:54;27.13;;;22.97;;
12681;SDS011;6405;59.208;18.216;2023-09-12T09:36:20;29.37;;;24.20;;
12681;SDS011;6405;59.208;18.216;2023-09-12T09:38:46;28.53;;;22.27;;
12681;SDS011;6405;59.208;18.216;2023-09-12T09:41:12;29.80;;;22.17;;
12681;SDS011;6405;59.208;18.216;2023-09-12T09:43:37;28.50;;;21.43;;
12681;SDS011;6405;59.208;18.216;2023-09-12T09:46:03;27.47;;;21.67;;
12681;SDS011;6405;59.208;18.216;2023-09-12T09:48:29;25.97;;;20.37;;
12681;SDS011;6405;59.208;18.216;2023-09-12T09:51:01;26.87;;;20.60;;
12681;SDS011;6405;59.208;18.216;2023-09-12T09:53:28;24.53;;;19.87;;
12681;SDS011;6405;59.208;18.216;2023-09-12T09:56:13;29.73;;;20.60;;
12681;SDS011;6405;59.208;18.216;2023-09-12T09:58:57;28.03;;;21.03;;
12681;SDS011;6405;59.208;18.216;2023-09-12T10:01:26;32.10;;;21.30;;
12681;SDS011;6405;59.208;18.216;2023-09-12T10:03:54;29.50;;;22.97;;
12681;SDS011;6405;59.208;18.216;2023-09-12T10:06:25;28.20;;;21.60;;
12681;SDS011;6405;59.208;18.216;2023-09-12T10:08:52;29.00;;;22.13;;
12681;SDS011;6405;59.208;18.216;2023-09-12T10:11:20;30.73;;;23.17;;
12681;SDS011;6405;59.208;18.216;2023-09-12T10:13:53;30.53;;;22.13;;
12681;SDS011;6405;59.208;18.216;2023-09-12T10:16:29;30.50;;;23.40;;
12681;SDS011;6405;59.208;18.216;2023-09-12T10:21:32;32.27;;;24.20;;
12681;SDS011;6405;59.208;18.216;2023-09-12T10:24:00;32.97;;;24.07;;
12681;SDS011;6405;59.208;18.216;2023-09-12T10:26:28;31.63;;;25.60;;
12681;SDS011;6405;59.208;18.216;2023-09-12T10:28:56;33.43;;;25.63;;
12681;SDS011;6405;59.208;18.216;2023-09-12T10:31:24;33.50;;;26.90;;
12681;SDS011;6405;59.208;18.216;2023-09-12T10:33:51;30.73;;;23.80;;
12681;SDS011;6405;59.208;18.216;2023-09-12T10:36:19;28.73;;;24.37;;
12681;SDS011;6405;59.208;18.216;2023-09-12T10:38:47;34.13;;;26.50;;
12681;SDS011;6405;59.208;18.216;2023-09-12T10:41:13;32.20;;;26.13;;
12681;SDS011;6405;59.208;18.216;2023-09-12T10:43:41;32.13;;;25.67;;
12681;SDS011;6405;59.208;18.216;2023-09-12T10:46:08;35.50;;;26.07;;
12681;SDS011;6405;59.208;18.216;2023-09-12T10:48:35;32.00;;;25.40;;
12681;SDS011;6405;59.208;18.216;2023-09-12T10:51:02;34.33;;;24.97;;
12681;SDS011;6405;59.208;18.216;2023-09-12T10:53:31;32.27;;;25.27;;
12681;SDS011;6405;59.208;18.216;2023-09-12T10:56:01;34.93;;;24.80;;
12681;SDS011;6405;59.208;18.216;2023-09-12T11:01:32;31.90;;;24.37;;
12681;SDS011;6405;59.208;18.216;2023-09-12T11:03:58;32.97;;;24.23;;
12681;SDS011;6405;59.208;18.216;2023-09-12T11:06:29;31.83;;;24.27;;
12681;SDS011;6405;59.208;18.216;2023-09-12T11:11:40;33.83;;;24.80;;
12681;SDS011;6405;59.208;18.216;2023-09-12T11:14:09;30.63;;;23.57;;
12681;SDS011;6405;59.208;18.216;2023-09-12T11:16:35;34.37;;;24.50;;
12681;SDS011;6405;59.208;18.216;2023-09-12T11:19:43;35.20;;;25.07;;
12681;SDS011;6405;59.208;18.216;2023-09-12T11:21:54;32.57;;;23.60;;
12681;SDS011;6405;59.208;18.216;2023-09-12T11:24:22;30.87;;;24.23;;
12681;SDS011;6405;59.208;18.216;2023-09-12T11:26:55;29.67;;;22.17;;
12681;SDS011;6405;59.208;18.216;2023-09-12T11:29:29;30.10;;;22.07;;
12681;SDS011;6405;59.208;18.216;2023-09-12T11:32:04;27.83;;;22.30;;
12681;SDS011;6405;59.208;18.216;2023-09-12T11:34:41;30.23;;;21.27;;
12681;SDS011;6405;59.208;18.216;2023-09-12T11:37:07;29.40;;;20.90;;
12681;SDS011;6405;59.208;18.216;2023-09-12T11:39:34;32.77;;;21.90;;
12681;SDS011;6405;59.208;18.216;2023-09-12T11:42:02;30.63;;;21.80;;
12681;SDS011;6405;59.208;18.216;2023-09-12T11:44:29;30.07;;;21.63;;
12681;SDS011;6405;59.208;18.216;2023-09-12T11:46:57;29.87;;;21.40;;
12681;SDS011;6405;59.208;18.216;2023-09-12T11:49:40;27.53;;;20.07;;
12681;SDS011;6405;59.208;18.216;2023-09-12T11:52:10;26.53;;;20.17;;
12681;SDS011;6405;59.208;18.216;2023-09-12T11:54:42;25.23;;;19.20;;
12681;SDS011;6405;59.208;18.216;2023-09-12T11:57:09;24.90;;;18.50;;
12681;SDS011;6405;59.208;18.216;2023-09-12T11:59:37;23.83;;;18.30;;
12681;SDS011;6405;59.208;18.216;2023-09-12T12:02:07;22.43;;;18.07;;
12681;SDS011;6405;59.208;18.216;2023-09-12T12:04:34;22.37;;;17.57;;
12681;SDS011;6405;59.208;18.216;2023-09-12T12:07:01;21.77;;;17.63;;
12681;SDS011;6405;59.208;18.216;2023-09-12T12:09:28;21.53;;;17.50;;
12681;SDS011;6405;59.208;18.216;2023-09-12T12:11:53;25.53;;;18.40;;
12681;SDS011;6405;59.208;18.216;2023-09-12T12:14:19;26.17;;;17.80;;
12681;SDS011;6405;59.208;18.216;2023-09-12T12:16:46;20.37;;;16.50;;
12681;SDS011;6405;59.208;18.216;2023-09-12T12:19:12;21.47;;;17.50;;
12681;SDS011;6405;59.208;18.216;2023-09-12T12:21:39;21.00;;;17.03;;
12681;SDS011;6405;59.208;18.216;2023-09-12T12:24:13;20.40;;;15.43;;
12681;SDS011;6405;59.208;18.216;2023-09-12T12:26:45;20.13;;;17.00;;
12681;SDS011;6405;59.208;18.216;2023-09-12T12:29:11;17.50;;;15.60;;
12681;SDS011;6405;59.208;18.216;2023-09-12T12:31:37;17.57;;;15.77;;
12681;SDS011;6405;59.208;18.216;2023-09-12T12:34:04;16.93;;;15.13;;
12681;SDS011;6405;59.208;18.216;2023-09-12T12:36:30;18.23;;;15.53;;
12681;SDS011;6405;59.208;18.216;2023-09-12T12:38:56;17.47;;;15.07;;
12681;SDS011;6405;59.208;18.216;2023-09-12T12:41:22;17.90;;;14.87;;
12681;SDS011;6405;59.208;18.216;2023-09-12T12:43:51;16.33;;;13.67;;
12681;SDS011;6405;59.208;18.216;2023-09-12T12:46:17;16.67;;;13.57;;
12681;SDS011;6405;59.208;18.216;2023-09-12T12:48:44;15.00;;;13.40;;
12681;SDS011;6405;59.208;18.216;2023-09-12T12:53:46;14.90;;;13.30;;
12681;SDS011;6405;59.208;18.216;2023-09-12T12:56:17;16.13;;;14.07;;
12681;SDS011;6405;59.208;18.216;2023-09-12T12:58:56;14.50;;;13.10;;
12681;SDS011;6405;59.208;18.216;2023-09-12T13:01:24;14.73;;;13.23;;
12681;SDS011;6405;59.208;18.216;2023-09-12T13:03:50;14.80;;;13.33;;
12681;SDS011;6405;59.208;18.216;2023-09-12T13:06:16;15.43;;;13.60;;
12681;SDS011;6405;59.208;18.216;2023-09-12T13:08:43;14.50;;;13.10;;
12681;SDS011;6405;59.208;18.216;2023-09-12T13:11:10;13.50;;;12.10;;
12681;SDS011;6405;59.208;18.216;2023-09-12T13:13:37;14.97;;;13.13;;
12681;SDS011;6405;59.208;18.216;2023-09-12T13:16:04;13.67;;;12.10;;
12681;SDS011;6405;59.208;18.216;2023-09-12T13:18:33;14.27;;;12.87;;
12681;SDS011;6405;59.208;18.216;2023-09-12T13:20:59;14.03;;;12.53;;
12681;SDS011;6405;59.208;18.216;2023-09-12T13:23:25;14.13;;;12.70;;
12681;SDS011;6405;59.208;18.216;2023-09-12T13:25:51;13.70;;;12.23;;
12681;SDS011;6405;59.208;18.216;2023-09-12T13:28:17;14.07;;;12.77;;
12681;SDS011;6405;59.208;18.216;2023-09-12T13:30:43;14.67;;;13.17;;
12681;SDS011;6405;59.208;18.216;2023-09-12T13:33:10;14.87;;;12.83;;
12681;SDS011;6405;59.208;18.216;2023-09-12T13:35:36;15.87;;;13.70;;
12681;SDS011;6405;59.208;18.216;2023-09-12T13:38:03;15.67;;;13.93;;
12681;SDS011;6405;59.208;18.216;2023-09-12T13:40:35;14.97;;;13.37;;
12681;SDS011;6405;59.208;18.216;2023-09-12T13:43:02;15.17;;;13.57;;
12681;SDS011;6405;59.208;18.216;2023-09-12T13:45:28;15.13;;;13.57;;
12681;SDS011;6405;59.208;18.216;2023-09-12T13:47:54;15.50;;;13.20;;
12681;SDS011;6405;59.208;18.216;2023-09-12T13:50:20;16.43;;;13.97;;
12681;SDS011;6405;59.208;18.216;2023-09-12T13:52:45;15.53;;;13.83;;
12681;SDS011;6405;59.208;18.216;2023-09-12T13:55:11;17.70;;;15.07;;
12681;SDS011;6405;59.208;18.216;2023-09-12T13:57:41;16.00;;;14.40;;
12681;SDS011;6405;59.208;18.216;2023-09-12T14:00:07;16.80;;;15.00;;
12681;SDS011;6405;59.208;18.216;2023-09-12T14:02:33;17.53;;;15.33;;
12681;SDS011;6405;59.208;18.216;2023-09-12T14:04:59;17.13;;;15.33;;
12681;SDS011;6405;59.208;18.216;2023-09-12T14:07:25;16.33;;;14.63;;
12681;SDS011;6405;59.208;18.216;2023-09-12T14:09:51;16.93;;;14.60;;
12681;SDS011;6405;59.208;18.216;2023-09-12T14:12:21;16.80;;;15.20;;
12681;SDS011;6405;59.208;18.216;2023-09-12T14:14:47;17.07;;;14.60;;
12681;SDS011;6405;59.208;18.216;2023-09-12T14:17:13;15.70;;;14.20;;
12681;SDS011;6405;59.208;18.216;2023-09-12T14:19:39;16.57;;;14.77;;
12681;SDS011;6405;59.208;18.216;2023-09-12T14:22:05;15.93;;;14.30;;
12681;SDS011;6405;59.208;18.216;2023-09-12T14:24:31;16.80;;;13.87;;
12681;SDS011;6405;59.208;18.216;2023-09-12T14:26:56;15.63;;;14.03;;
12681;SDS011;6405;59.208;18.216;2023-09-12T14:29:22;16.40;;;13.83;;
12681;SDS011;6405;59.208;18.216;2023-09-12T14:31:49;15.27;;;13.67;;
12681;SDS011;6405;59.208;18.216;2023-09-12T14:34:18;15.43;;;13.93;;
12681;SDS011;6405;59.208;18.216;2023-09-12T14:36:43;15.43;;;13.83;;
12681;SDS011;6405;59.208;18.216;2023-09-12T14:39:11;15.90;;;14.20;;
12681;SDS011;6405;59.208;18.216;2023-09-12T14:41:37;17.47;;;14.43;;
12681;SDS011;6405;59.208;18.216;2023-09-12T14:44:03;15.33;;;13.73;;
12681;SDS011;6405;59.208;18.216;2023-09-12T14:46:30;15.23;;;13.73;;